sensor_id;sensor_type;location;lat;lon;timestamp;temperature;humidity
76537;DHT22;65381;51.254;15.592;2023-11-19T00:01:09;1.70;94.90
76537;DHT22;65381;51.254;15.592;2023-11-19T00:03:57;1.70;94.90
76537;DHT22;65381;51.254;15.592;2023-11-19T00:06:25;1.70;94.80
76537;DHT22;65381;51.254;15.592;2023-11-19T00:08:54;1.70;94.70
76537;DHT22;65381;51.254;15.592;2023-11-19T00:11:22;1.60;94.80
76537;DHT22;65381;51.254;15.592;2023-11-19T00:13:50;1.60;94.80
76537;DHT22;65381;51.254;15.592;2023-11-19T00:16:19;1.60;94.90
76537;DHT22;65381;51.254;15.592;2023-11-19T00:18:46;1.60;95.00
76537;DHT22;65381;51.254;15.592;2023-11-19T00:21:15;1.60;95.00
76537;DHT22;65381;51.254;15.592;2023-11-19T00:23:43;1.60;95.00
76537;DHT22;65381;51.254;15.592;2023-11-19T00:26:11;1.60;95.00
76537;DHT22;65381;51.254;15.592;2023-11-19T00:28:46;1.60;95.10
76537;DHT22;65381;51.254;15.592;2023-11-19T00:31:15;1.50;95.10
76537;DHT22;65381;51.254;15.592;2023-11-19T00:33:44;1.60;95.20
76537;DHT22;65381;51.254;15.592;2023-11-19T00:36:17;1.60;95.40
76537;DHT22;65381;51.254;15.592;2023-11-19T00:38:46;1.60;95.40
76537;DHT22;65381;51.254;15.592;2023-11-19T00:41:15;1.60;95.30
76537;DHT22;65381;51.254;15.592;2023-11-19T00:43:44;1.60;95.30
76537;DHT22;65381;51.254;15.592;2023-11-19T00:46:12;1.60;95.20
76537;DHT22;65381;51.254;15.592;2023-11-19T00:48:41;1.60;95.20
76537;DHT22;65381;51.254;15.592;2023-11-19T00:51:11;1.60;95.10
76537;DHT22;65381;51.254;15.592;2023-11-19T00:53:39;1.60;95.10
76537;DHT22;65381;51.254;15.592;2023-11-19T00:56:08;1.60;95.00
76537;DHT22;65381;51.254;15.592;2023-11-19T00:58:39;1.60;95.00
76537;DHT22;65381;51.254;15.592;2023-11-19T01:01:07;1.60;94.90
76537;DHT22;65381;51.254;15.592;2023-11-19T01:03:36;1.50;94.90
76537;DHT22;65381;51.254;15.592;2023-11-19T01:06:05;1.50;94.90
76537;DHT22;65381;51.254;15.592;2023-11-19T01:08:33;1.50;94.90
76537;DHT22;65381;51.254;15.592;2023-11-19T01:11:04;1.50;94.90
76537;DHT22;65381;51.254;15.592;2023-11-19T01:13:32;1.50;94.90
76537;DHT22;65381;51.254;15.592;2023-11-19T01:16:01;1.50;95.00
76537;DHT22;65381;51.254;15.592;2023-11-19T01:18:30;1.60;95.10
76537;DHT22;65381;51.254;15.592;2023-11-19T01:21:00;1.60;95.10
76537;DHT22;65381;51.254;15.592;2023-11-19T01:23:28;1.60;95.20
76537;DHT22;65381;51.254;15.592;2023-11-19T01:25:56;1.70;95.20
76537;DHT22;65381;51.254;15.592;2023-11-19T01:28:24;1.70;95.30
76537;DHT22;65381;51.254;15.592;2023-11-19T01:30:53;1.80;95.30
76537;DHT22;65381;51.254;15.592;2023-11-19T01:33:21;1.80;95.20
76537;DHT22;65381;51.254;15.592;2023-11-19T01:35:49;1.90;95.00
76537;DHT22;65381;51.254;15.592;2023-11-19T01:38:20;1.90;94.80
76537;DHT22;65381;51.254;15.592;2023-11-19T01:40:48;1.80;94.70
76537;DHT22;65381;51.254;15.592;2023-11-19T01:43:39;1.80;94.80
76537;DHT22;65381;51.254;15.592;2023-11-19T01:46:10;1.70;94.80
76537;DHT22;65381;51.254;15.592;2023-11-19T01:48:45;1.80;95.00
76537;DHT22;65381;51.254;15.592;2023-11-19T01:51:14;1.80;95.20
76537;DHT22;65381;51.254;15.592;2023-11-19T01:53:44;1.80;95.20
76537;DHT22;65381;51.254;15.592;2023-11-19T01:56:14;1.80;95.20
76537;DHT22;65381;51.254;15.592;2023-11-19T01:58:47;1.80;95.30
76537;DHT22;65381;51.254;15.592;2023-11-19T02:01:16;1.90;95.30
76537;DHT22;65381;51.254;15.592;2023-11-19T02:03:45;1.90;95.30
76537;DHT22;65381;51.254;15.592;2023-11-19T02:06:15;1.90;95.20
76537;DHT22;65381;51.254;15.592;2023-11-19T02:08:43;1.90;95.20
76537;DHT22;65381;51.254;15.592;2023-11-19T02:11:11;1.90;95.20
76537;DHT22;65381;51.254;15.592;2023-11-19T02:13:40;1.90;95.20
76537;DHT22;65381;51.254;15.592;2023-11-19T02:16:09;1.90;95.20
76537;DHT22;65381;51.254;15.592;2023-11-19T02:18:39;1.90;95.20
76537;DHT22;65381;51.254;15.592;2023-11-19T02:21:07;1.90;95.30
76537;DHT22;65381;51.254;15.592;2023-11-19T02:23:35;2.00;95.20
76537;DHT22;65381;51.254;15.592;2023-11-19T02:26:32;1.90;95.30
76537;DHT22;65381;51.254;15.592;2023-11-19T02:29:02;2.00;95.40
76537;DHT22;65381;51.254;15.592;2023-11-19T02:31:34;2.00;95.40
76537;DHT22;65381;51.254;15.592;2023-11-19T02:34:03;2.00;95.30
76537;DHT22;65381;51.254;15.592;2023-11-19T02:36:31;2.00;95.30
76537;DHT22;65381;51.254;15.592;2023-11-19T02:39:01;2.00;95.30
76537;DHT22;65381;51.254;15.592;2023-11-19T02:41:29;2.00;95.30
76537;DHT22;65381;51.254;15.592;2023-11-19T02:43:58;2.00;95.20
76537;DHT22;65381;51.254;15.592;2023-11-19T02:46:26;2.10;95.20
76537;DHT22;65381;51.254;15.592;2023-11-19T02:48:54;2.00;95.20
76537;DHT22;65381;51.254;15.592;2023-11-19T02:51:23;2.10;95.30
76537;DHT22;65381;51.254;15.592;2023-11-19T02:53:53;2.10;95.30
76537;DHT22;65381;51.254;15.592;2023-11-19T02:56:21;2.10;95.20
76537;DHT22;65381;51.254;15.592;2023-11-19T02:58:57;2.10;95.20
76537;DHT22;65381;51.254;15.592;2023-11-19T03:01:25;2.20;95.30
76537;DHT22;65381;51.254;15.592;2023-11-19T03:04:01;2.20;95.40
76537;DHT22;65381;51.254;15.592;2023-11-19T03:06:31;2.20;95.60
76537;DHT22;65381;51.254;15.592;2023-11-19T03:09:00;2.30;95.60
76537;DHT22;65381;51.254;15.592;2023-11-19T03:11:33;2.30;95.50
76537;DHT22;65381;51.254;15.592;2023-11-19T03:14:01;2.40;95.50
76537;DHT22;65381;51.254;15.592;2023-11-19T03:16:31;2.30;95.40
76537;DHT22;65381;51.254;15.592;2023-11-19T03:19:00;2.40;95.40
76537;DHT22;65381;51.254;15.592;2023-11-19T03:21:29;2.40;95.50
76537;DHT22;65381;51.254;15.592;2023-11-19T03:23:58;2.40;95.40
76537;DHT22;65381;51.254;15.592;2023-11-19T03:26:29;2.40;95.30
76537;DHT22;65381;51.254;15.592;2023-11-19T03:28:57;2.40;95.40
76537;DHT22;65381;51.254;15.592;2023-11-19T03:31:25;2.40;95.40
76537;DHT22;65381;51.254;15.592;2023-11-19T03:33:53;2.40;95.20
76537;DHT22;65381;51.254;15.592;2023-11-19T03:36:31;2.40;95.30
76537;DHT22;65381;51.254;15.592;2023-11-19T03:39:01;2.40;95.30
76537;DHT22;65381;51.254;15.592;2023-11-19T03:41:28;2.40;95.50
76537;DHT22;65381;51.254;15.592;2023-11-19T03:44:09;2.40;95.50
76537;DHT22;65381;51.254;15.592;2023-11-19T03:46:37;2.40;95.70
76537;DHT22;65381;51.254;15.592;2023-11-19T03:49:06;2.50;95.70
76537;DHT22;65381;51.254;15.592;2023-11-19T03:51:34;2.50;95.70
76537;DHT22;65381;51.254;15.592;2023-11-19T03:54:03;2.50;95.70
76537;DHT22;65381;51.254;15.592;2023-11-19T03:56:31;2.50;95.70
76537;DHT22;65381;51.254;15.592;2023-11-19T03:58:59;2.50;95.70
76537;DHT22;65381;51.254;15.592;2023-11-19T04:01:27;2.60;95.50
76537;DHT22;65381;51.254;15.592;2023-11-19T04:03:56;2.60;95.60
76537;DHT22;65381;51.254;15.592;2023-11-19T04:06:24;2.70;95.70
76537;DHT22;65381;51.254;15.592;2023-11-19T04:08:52;2.70;95.40
76537;DHT22;65381;51.254;15.592;2023-11-19T04:11:20;2.60;95.40
76537;DHT22;65381;51.254;15.592;2023-11-19T04:13:48;2.60;95.40
76537;DHT22;65381;51.254;15.592;2023-11-19T04:16:16;2.60;95.30
76537;DHT22;65381;51.254;15.592;2023-11-19T04:18:44;2.50;95.20
76537;DHT22;65381;51.254;15.592;2023-11-19T04:21:12;2.50;95.20
76537;DHT22;65381;51.254;15.592;2023-11-19T04:23:40;2.40;95.30
76537;DHT22;65381;51.254;15.592;2023-11-19T04:26:08;2.50;95.40
76537;DHT22;65381;51.254;15.592;2023-11-19T04:28:37;2.50;95.40
76537;DHT22;65381;51.254;15.592;2023-11-19T04:31:06;2.40;95.40
76537;DHT22;65381;51.254;15.592;2023-11-19T04:33:35;2.40;95.40
76537;DHT22;65381;51.254;15.592;2023-11-19T04:36:02;2.30;95.40
76537;DHT22;65381;51.254;15.592;2023-11-19T04:38:31;2.30;95.50
76537;DHT22;65381;51.254;15.592;2023-11-19T04:40:59;2.30;95.60
76537;DHT22;65381;51.254;15.592;2023-11-19T04:43:28;2.30;95.60
76537;DHT22;65381;51.254;15.592;2023-11-19T04:45:56;2.30;95.70
76537;DHT22;65381;51.254;15.592;2023-11-19T04:48:25;2.30;95.60
76537;DHT22;65381;51.254;15.592;2023-11-19T04:50:53;2.30;95.70
76537;DHT22;65381;51.254;15.592;2023-11-19T04:53:22;2.30;95.70
76537;DHT22;65381;51.254;15.592;2023-11-19T04:55:50;2.30;95.80
76537;DHT22;65381;51.254;15.592;2023-11-19T04:58:18;2.30;95.70
76537;DHT22;65381;51.254;15.592;2023-11-19T05:00:47;2.40;95.70
76537;DHT22;65381;51.254;15.592;2023-11-19T05:03:15;2.40;95.70
76537;DHT22;65381;51.254;15.592;2023-11-19T05:05:43;2.40;95.70
76537;DHT22;65381;51.254;15.592;2023-11-19T05:08:11;2.30;95.60
76537;DHT22;65381;51.254;15.592;2023-11-19T05:10:39;2.30;95.70
76537;DHT22;65381;51.254;15.592;2023-11-19T05:13:08;2.30;95.70
76537;DHT22;65381;51.254;15.592;2023-11-19T05:15:36;2.30;95.70
76537;DHT22;65381;51.254;15.592;2023-11-19T05:18:06;2.30;95.80
76537;DHT22;65381;51.254;15.592;2023-11-19T05:20:34;2.40;95.90
76537;DHT22;65381;51.254;15.592;2023-11-19T05:23:02;2.40;96.00
76537;DHT22;65381;51.254;15.592;2023-11-19T05:25:30;2.40;96.00
76537;DHT22;65381;51.254;15.592;2023-11-19T05:27:58;2.50;96.00
76537;DHT22;65381;51.254;15.592;2023-11-19T05:30:26;2.40;95.80
76537;DHT22;65381;51.254;15.592;2023-11-19T05:32:55;2.50;95.90
76537;DHT22;65381;51.254;15.592;2023-11-19T05:35:23;2.40;95.90
76537;DHT22;65381;51.254;15.592;2023-11-19T05:37:51;2.50;95.90
76537;DHT22;65381;51.254;15.592;2023-11-19T05:40:19;2.50;95.90
76537;DHT22;65381;51.254;15.592;2023-11-19T05:42:48;2.50;96.00
76537;DHT22;65381;51.254;15.592;2023-11-19T05:45:16;2.50;96.00
76537;DHT22;65381;51.254;15.592;2023-11-19T05:47:45;2.50;96.10
76537;DHT22;65381;51.254;15.592;2023-11-19T05:50:12;2.50;96.00
76537;DHT22;65381;51.254;15.592;2023-11-19T05:52:42;2.60;95.90
76537;DHT22;65381;51.254;15.592;2023-11-19T05:55:11;2.60;95.90
76537;DHT22;65381;51.254;15.592;2023-11-19T05:57:41;2.70;95.90
76537;DHT22;65381;51.254;15.592;2023-11-19T06:00:12;2.70;95.90
76537;DHT22;65381;51.254;15.592;2023-11-19T06:02:43;2.70;95.90
76537;DHT22;65381;51.254;15.592;2023-11-19T06:05:13;2.70;95.80
76537;DHT22;65381;51.254;15.592;2023-11-19T06:07:41;2.70;95.80
76537;DHT22;65381;51.254;15.592;2023-11-19T06:10:09;2.70;95.80
76537;DHT22;65381;51.254;15.592;2023-11-19T06:12:39;2.70;96.00
76537;DHT22;65381;51.254;15.592;2023-11-19T06:15:09;2.70;95.90
76537;DHT22;65381;51.254;15.592;2023-11-19T06:17:38;2.70;96.00
76537;DHT22;65381;51.254;15.592;2023-11-19T06:20:06;2.80;96.00
76537;DHT22;65381;51.254;15.592;2023-11-19T06:22:39;2.80;95.90
76537;DHT22;65381;51.254;15.592;2023-11-19T06:25:12;2.80;95.90
76537;DHT22;65381;51.254;15.592;2023-11-19T06:27:42;2.80;96.00
76537;DHT22;65381;51.254;15.592;2023-11-19T06:30:11;2.80;96.00
76537;DHT22;65381;51.254;15.592;2023-11-19T06:32:39;2.90;96.00
76537;DHT22;65381;51.254;15.592;2023-11-19T06:35:07;2.90;95.90
76537;DHT22;65381;51.254;15.592;2023-11-19T06:37:38;2.90;95.80
76537;DHT22;65381;51.254;15.592;2023-11-19T06:40:07;2.90;95.80
76537;DHT22;65381;51.254;15.592;2023-11-19T06:42:37;2.90;95.70
76537;DHT22;65381;51.254;15.592;2023-11-19T06:45:06;2.90;95.70
76537;DHT22;65381;51.254;15.592;2023-11-19T06:47:35;2.90;95.80
76537;DHT22;65381;51.254;15.592;2023-11-19T06:50:04;2.90;95.80
76537;DHT22;65381;51.254;15.592;2023-11-19T06:52:34;2.90;95.90
76537;DHT22;65381;51.254;15.592;2023-11-19T06:55:02;2.90;95.90
76537;DHT22;65381;51.254;15.592;2023-11-19T06:57:33;2.90;95.90
76537;DHT22;65381;51.254;15.592;2023-11-19T07:00:02;2.90;96.00
76537;DHT22;65381;51.254;15.592;2023-11-19T07:02:35;2.90;96.10
76537;DHT22;65381;51.254;15.592;2023-11-19T07:05:03;2.90;96.10
76537;DHT22;65381;51.254;15.592;2023-11-19T07:07:34;2.90;96.10
76537;DHT22;65381;51.254;15.592;2023-11-19T07:10:03;2.90;96.30
76537;DHT22;65381;51.254;15.592;2023-11-19T07:12:32;2.90;96.20
76537;DHT22;65381;51.254;15.592;2023-11-19T07:15:02;3.00;96.20
76537;DHT22;65381;51.254;15.592;2023-11-19T07:17:31;3.00;96.20
76537;DHT22;65381;51.254;15.592;2023-11-19T07:19:59;3.00;96.10
76537;DHT22;65381;51.254;15.592;2023-11-19T07:22:27;3.00;96.20
76537;DHT22;65381;51.254;15.592;2023-11-19T07:24:58;3.00;96.10
76537;DHT22;65381;51.254;15.592;2023-11-19T07:27:27;3.00;96.20
76537;DHT22;65381;51.254;15.592;2023-11-19T07:29:57;3.00;96.20
76537;DHT22;65381;51.254;15.592;2023-11-19T07:32:26;3.00;96.20
76537;DHT22;65381;51.254;15.592;2023-11-19T07:34:54;3.00;96.20
76537;DHT22;65381;51.254;15.592;2023-11-19T07:37:24;3.00;96.30
76537;DHT22;65381;51.254;15.592;2023-11-19T07:39:52;3.00;96.40
76537;DHT22;65381;51.254;15.592;2023-11-19T07:42:21;3.00;96.50
76537;DHT22;65381;51.254;15.592;2023-11-19T07:44:50;3.00;96.60
76537;DHT22;65381;51.254;15.592;2023-11-19T07:47:19;3.00;96.70
76537;DHT22;65381;51.254;15.592;2023-11-19T07:49:47;3.00;96.60
76537;DHT22;65381;51.254;15.592;2023-11-19T07:52:15;3.00;96.50
76537;DHT22;65381;51.254;15.592;2023-11-19T07:54:47;3.00;96.50
76537;DHT22;65381;51.254;15.592;2023-11-19T07:57:18;3.00;96.50
76537;DHT22;65381;51.254;15.592;2023-11-19T07:59:47;3.00;96.60
76537;DHT22;65381;51.254;15.592;2023-11-19T08:02:15;3.00;96.60
76537;DHT22;65381;51.254;15.592;2023-11-19T08:04:43;3.00;96.80
76537;DHT22;65381;51.254;15.592;2023-11-19T08:07:14;3.10;97.00
76537;DHT22;65381;51.254;15.592;2023-11-19T08:09:42;3.10;97.10
76537;DHT22;65381;51.254;15.592;2023-11-19T08:12:11;3.20;97.20
76537;DHT22;65381;51.254;15.592;2023-11-19T08:14:40;3.30;97.20
76537;DHT22;65381;51.254;15.592;2023-11-19T08:17:09;3.30;97.30
76537;DHT22;65381;51.254;15.592;2023-11-19T08:19:37;3.40;97.20
76537;DHT22;65381;51.254;15.592;2023-11-19T08:22:06;3.40;97.10
76537;DHT22;65381;51.254;15.592;2023-11-19T08:24:36;3.50;97.00
76537;DHT22;65381;51.254;15.592;2023-11-19T08:27:04;3.50;96.90
76537;DHT22;65381;51.254;15.592;2023-11-19T08:29:34;3.50;96.90
76537;DHT22;65381;51.254;15.592;2023-11-19T08:32:04;3.50;97.00
76537;DHT22;65381;51.254;15.592;2023-11-19T08:34:33;3.50;97.00
76537;DHT22;65381;51.254;15.592;2023-11-19T08:37:02;3.50;97.00
76537;DHT22;65381;51.254;15.592;2023-11-19T08:39:30;3.50;97.00
76537;DHT22;65381;51.254;15.592;2023-11-19T08:41:58;3.50;96.90
76537;DHT22;65381;51.254;15.592;2023-11-19T08:44:26;3.50;96.90
76537;DHT22;65381;51.254;15.592;2023-11-19T08:46:55;3.50;96.80
76537;DHT22;65381;51.254;15.592;2023-11-19T08:49:23;3.50;96.90
76537;DHT22;65381;51.254;15.592;2023-11-19T08:51:52;3.50;97.10
76537;DHT22;65381;51.254;15.592;2023-11-19T08:54:20;3.50;97.10
76537;DHT22;65381;51.254;15.592;2023-11-19T08:56:49;3.50;97.30
76537;DHT22;65381;51.254;15.592;2023-11-19T08:59:18;3.50;97.30
76537;DHT22;65381;51.254;15.592;2023-11-19T09:01:47;3.50;97.40
76537;DHT22;65381;51.254;15.592;2023-11-19T09:04:15;3.50;97.40
76537;DHT22;65381;51.254;15.592;2023-11-19T09:06:48;3.60;97.50
76537;DHT22;65381;51.254;15.592;2023-11-19T09:09:16;3.60;97.70
76537;DHT22;65381;51.254;15.592;2023-11-19T09:11:44;3.70;97.80
76537;DHT22;65381;51.254;15.592;2023-11-19T09:14:13;3.70;97.80
76537;DHT22;65381;51.254;15.592;2023-11-19T09:16:41;3.80;97.80
76537;DHT22;65381;51.254;15.592;2023-11-19T09:19:09;3.90;97.80
76537;DHT22;65381;51.254;15.592;2023-11-19T09:21:38;3.90;98.00
76537;DHT22;65381;51.254;15.592;2023-11-19T09:24:07;3.90;98.00
76537;DHT22;65381;51.254;15.592;2023-11-19T09:26:36;4.00;98.00
76537;DHT22;65381;51.254;15.592;2023-11-19T09:29:04;4.00;98.10
76537;DHT22;65381;51.254;15.592;2023-11-19T09:31:32;4.10;98.20
76537;DHT22;65381;51.254;15.592;2023-11-19T09:34:01;4.20;98.20
76537;DHT22;65381;51.254;15.592;2023-11-19T09:36:29;4.30;98.20
76537;DHT22;65381;51.254;15.592;2023-11-19T09:38:58;4.40;98.30
76537;DHT22;65381;51.254;15.592;2023-11-19T09:41:30;4.50;98.20
76537;DHT22;65381;51.254;15.592;2023-11-19T09:43:59;4.50;98.20
76537;DHT22;65381;51.254;15.592;2023-11-19T09:46:28;4.50;98.20
76537;DHT22;65381;51.254;15.592;2023-11-19T09:48:58;4.70;98.20
76537;DHT22;65381;51.254;15.592;2023-11-19T09:51:27;4.70;98.20
76537;DHT22;65381;51.254;15.592;2023-11-19T09:53:56;4.70;98.20
76537;DHT22;65381;51.254;15.592;2023-11-19T09:56:26;4.70;98.30
76537;DHT22;65381;51.254;15.592;2023-11-19T09:58:59;4.90;98.50
76537;DHT22;65381;51.254;15.592;2023-11-19T10:01:30;5.00;98.60
76537;DHT22;65381;51.254;15.592;2023-11-19T10:04:00;5.00;98.80
76537;DHT22;65381;51.254;15.592;2023-11-19T10:06:30;5.10;98.90
76537;DHT22;65381;51.254;15.592;2023-11-19T10:21:05;5.40;99.70
76537;DHT22;65381;51.254;15.592;2023-11-19T10:23:53;5.20;99.90
76537;DHT22;65381;51.254;15.592;2023-11-19T10:26:22;5.50;99.90
76537;DHT22;65381;51.254;15.592;2023-11-19T10:28:51;5.70;99.90
76537;DHT22;65381;51.254;15.592;2023-11-19T10:31:20;5.90;99.90
76537;DHT22;65381;51.254;15.592;2023-11-19T10:33:54;6.10;99.90
76537;DHT22;65381;51.254;15.592;2023-11-19T10:36:23;6.30;99.90
76537;DHT22;65381;51.254;15.592;2023-11-19T10:39:05;6.40;99.90
76537;DHT22;65381;51.254;15.592;2023-11-19T10:41:33;6.60;99.50
76537;DHT22;65381;51.254;15.592;2023-11-19T10:44:03;6.70;99.50
76537;DHT22;65381;51.254;15.592;2023-11-19T10:46:41;6.90;99.40
76537;DHT22;65381;51.254;15.592;2023-11-19T10:49:10;7.00;99.40
76537;DHT22;65381;51.254;15.592;2023-11-19T10:51:44;7.50;99.90
76537;DHT22;65381;51.254;15.592;2023-11-19T10:54:15;8.00;99.90
76537;DHT22;65381;51.254;15.592;2023-11-19T10:56:48;8.70;99.90
76537;DHT22;65381;51.254;15.592;2023-11-19T10:59:22;9.30;99.90
76537;DHT22;65381;51.254;15.592;2023-11-19T11:01:56;9.60;99.90
76537;DHT22;65381;51.254;15.592;2023-11-19T11:04:25;10.00;99.80
76537;DHT22;65381;51.254;15.592;2023-11-19T11:06:55;10.60;99.70
76537;DHT22;65381;51.254;15.592;2023-11-19T11:09:27;10.50;95.60
76537;DHT22;65381;51.254;15.592;2023-11-19T11:11:56;10.20;94.70
76537;DHT22;65381;51.254;15.592;2023-11-19T11:14:25;10.00;95.60
76537;DHT22;65381;51.254;15.592;2023-11-19T11:16:56;10.00;95.50
76537;DHT22;65381;51.254;15.592;2023-11-19T11:19:26;9.70;94.60
76537;DHT22;65381;51.254;15.592;2023-11-19T11:21:55;9.60;95.30
76537;DHT22;65381;51.254;15.592;2023-11-19T11:33:32;9.80;96.00
76537;DHT22;65381;51.254;15.592;2023-11-19T11:35:53;9.70;95.90
76537;DHT22;65381;51.254;15.592;2023-11-19T11:38:23;9.90;97.10
76537;DHT22;65381;51.254;15.592;2023-11-19T11:41:19;10.00;96.80
76537;DHT22;65381;51.254;15.592;2023-11-19T11:43:52;9.90;95.10
76537;DHT22;65381;51.254;15.592;2023-11-19T11:49:05;9.50;95.10
76537;DHT22;65381;51.254;15.592;2023-11-19T11:57:03;9.50;96.90
76537;DHT22;65381;51.254;15.592;2023-11-19T11:59:44;9.60;96.70
76537;DHT22;65381;51.254;15.592;2023-11-19T12:02:22;9.60;96.20
76537;DHT22;65381;51.254;15.592;2023-11-19T12:04:52;9.60;96.90
76537;DHT22;65381;51.254;15.592;2023-11-19T12:07:22;10.20;99.40
76537;DHT22;65381;51.254;15.592;2023-11-19T12:10:08;10.40;97.50
76537;DHT22;65381;51.254;15.592;2023-11-19T12:12:37;10.20;95.50
76537;DHT22;65381;51.254;15.592;2023-11-19T12:15:10;10.00;95.50
76537;DHT22;65381;51.254;15.592;2023-11-19T12:17:44;10.20;98.00
76537;DHT22;65381;51.254;15.592;2023-11-19T12:20:16;11.00;99.80
76537;DHT22;65381;51.254;15.592;2023-11-19T12:23:04;11.20;97.70
76537;DHT22;65381;51.254;15.592;2023-11-19T12:25:34;11.50;98.00
76537;DHT22;65381;51.254;15.592;2023-11-19T12:28:03;11.90;97.20
76537;DHT22;65381;51.254;15.592;2023-11-19T12:30:32;12.20;97.70
76537;DHT22;65381;51.254;15.592;2023-11-19T12:33:11;12.60;97.00
76537;DHT22;65381;51.254;15.592;2023-11-19T12:35:40;13.10;97.00
76537;DHT22;65381;51.254;15.592;2023-11-19T12:41:05;13.50;94.20
76537;DHT22;65381;51.254;15.592;2023-11-19T12:43:35;13.60;93.10
76537;DHT22;65381;51.254;15.592;2023-11-19T12:46:22;13.60;93.90
76537;DHT22;65381;51.254;15.592;2023-11-19T12:48:51;13.60;92.10
76537;DHT22;65381;51.254;15.592;2023-11-19T12:51:19;13.70;92.50
76537;DHT22;65381;51.254;15.592;2023-11-19T12:53:52;13.70;92.90
76537;DHT22;65381;51.254;15.592;2023-11-19T12:56:24;14.00;93.70
76537;DHT22;65381;51.254;15.592;2023-11-19T12:58:52;14.20;93.00
76537;DHT22;65381;51.254;15.592;2023-11-19T13:01:21;14.30;92.30
76537;DHT22;65381;51.254;15.592;2023-11-19T13:03:50;14.40;91.60
76537;DHT22;65381;51.254;15.592;2023-11-19T13:06:19;14.10;90.00
76537;DHT22;65381;51.254;15.592;2023-11-19T13:08:51;13.30;87.50
76537;DHT22;65381;51.254;15.592;2023-11-19T13:11:34;12.50;88.90
76537;DHT22;65381;51.254;15.592;2023-11-19T13:14:03;11.70;89.70
76537;DHT22;65381;51.254;15.592;2023-11-19T13:16:32;11.20;91.50
76537;DHT22;65381;51.254;15.592;2023-11-19T13:19:01;10.90;92.40
76537;DHT22;65381;51.254;15.592;2023-11-19T13:21:31;10.60;93.20
76537;DHT22;65381;51.254;15.592;2023-11-19T13:24:00;10.50;94.80
76537;DHT22;65381;51.254;15.592;2023-11-19T13:26:28;10.80;96.40
76537;DHT22;65381;51.254;15.592;2023-11-19T13:28:58;10.70;94.50
76537;DHT22;65381;51.254;15.592;2023-11-19T13:31:26;10.40;94.40
76537;DHT22;65381;51.254;15.592;2023-11-19T13:33:55;10.20;95.10
76537;DHT22;65381;51.254;15.592;2023-11-19T13:36:24;10.00;95.20
76537;DHT22;65381;51.254;15.592;2023-11-19T13:38:54;10.00;95.70
76537;DHT22;65381;51.254;15.592;2023-11-19T13:41:27;9.80;95.90
76537;DHT22;65381;51.254;15.592;2023-11-19T13:43:56;9.70;95.90
76537;DHT22;65381;51.254;15.592;2023-11-19T13:46:26;9.60;96.10
76537;DHT22;65381;51.254;15.592;2023-11-19T13:48:54;9.50;96.50
76537;DHT22;65381;51.254;15.592;2023-11-19T13:51:23;9.50;97.10
76537;DHT22;65381;51.254;15.592;2023-11-19T13:53:52;9.50;96.70
76537;DHT22;65381;51.254;15.592;2023-11-19T13:56:19;9.30;96.60
76537;DHT22;65381;51.254;15.592;2023-11-19T13:58:49;9.20;96.80
76537;DHT22;65381;51.254;15.592;2023-11-19T14:01:18;9.10;96.90
76537;DHT22;65381;51.254;15.592;2023-11-19T14:03:46;9.00;97.10
76537;DHT22;65381;51.254;15.592;2023-11-19T14:06:14;9.00;98.00
76537;DHT22;65381;51.254;15.592;2023-11-19T14:08:43;9.40;99.20
76537;DHT22;65381;51.254;15.592;2023-11-19T14:11:11;9.80;99.60
76537;DHT22;65381;51.254;15.592;2023-11-19T14:13:41;10.10;99.40
76537;DHT22;65381;51.254;15.592;2023-11-19T14:16:09;10.30;98.50
76537;DHT22;65381;51.254;15.592;2023-11-19T14:18:38;10.40;97.30
76537;DHT22;65381;51.254;15.592;2023-11-19T14:21:06;10.30;96.70
76537;DHT22;65381;51.254;15.592;2023-11-19T14:23:35;10.30;96.20
76537;DHT22;65381;51.254;15.592;2023-11-19T14:26:03;10.10;95.60
76537;DHT22;65381;51.254;15.592;2023-11-19T14:28:32;10.00;95.60
76537;DHT22;65381;51.254;15.592;2023-11-19T14:31:00;9.80;95.60
76537;DHT22;65381;51.254;15.592;2023-11-19T14:33:29;9.60;95.50
76537;DHT22;65381;51.254;15.592;2023-11-19T14:35:57;9.40;95.50
76537;DHT22;65381;51.254;15.592;2023-11-19T14:38:26;9.30;95.50
76537;DHT22;65381;51.254;15.592;2023-11-19T14:40:53;9.10;95.60
76537;DHT22;65381;51.254;15.592;2023-11-19T14:43:22;8.90;95.80
76537;DHT22;65381;51.254;15.592;2023-11-19T14:45:52;8.80;96.00
76537;DHT22;65381;51.254;15.592;2023-11-19T14:48:23;8.60;96.00
76537;DHT22;65381;51.254;15.592;2023-11-19T14:50:51;8.40;96.10
76537;DHT22;65381;51.254;15.592;2023-11-19T14:53:21;8.30;96.30
76537;DHT22;65381;51.254;15.592;2023-11-19T14:55:50;8.20;96.50
76537;DHT22;65381;51.254;15.592;2023-11-19T14:58:19;8.10;96.60
76537;DHT22;65381;51.254;15.592;2023-11-19T15:00:47;8.00;96.80
76537;DHT22;65381;51.254;15.592;2023-11-19T15:03:16;7.90;97.10
76537;DHT22;65381;51.254;15.592;2023-11-19T15:05:47;7.80;97.30
76537;DHT22;65381;51.254;15.592;2023-11-19T15:08:16;7.80;97.40
76537;DHT22;65381;51.254;15.592;2023-11-19T15:10:45;7.80;97.30
76537;DHT22;65381;51.254;15.592;2023-11-19T15:13:15;7.70;97.20
76537;DHT22;65381;51.254;15.592;2023-11-19T15:15:43;7.60;97.50
76537;DHT22;65381;51.254;15.592;2023-11-19T15:18:12;7.60;97.70
76537;DHT22;65381;51.254;15.592;2023-11-19T15:20:41;7.60;97.70
76537;DHT22;65381;51.254;15.592;2023-11-19T15:23:10;7.60;97.90
76537;DHT22;65381;51.254;15.592;2023-11-19T15:25:39;7.50;97.90
76537;DHT22;65381;51.254;15.592;2023-11-19T15:28:08;7.50;97.80
76537;DHT22;65381;51.254;15.592;2023-11-19T15:30:40;7.50;97.70
76537;DHT22;65381;51.254;15.592;2023-11-19T15:33:08;7.50;97.60
76537;DHT22;65381;51.254;15.592;2023-11-19T15:35:36;7.50;97.60
76537;DHT22;65381;51.254;15.592;2023-11-19T15:38:05;7.50;97.70
76537;DHT22;65381;51.254;15.592;2023-11-19T15:40:36;7.40;98.00
76537;DHT22;65381;51.254;15.592;2023-11-19T15:43:05;7.50;98.20
76537;DHT22;65381;51.254;15.592;2023-11-19T15:45:34;7.50;98.20
76537;DHT22;65381;51.254;15.592;2023-11-19T15:48:07;7.50;98.40
76537;DHT22;65381;51.254;15.592;2023-11-19T15:50:36;7.60;98.50
76537;DHT22;65381;51.254;15.592;2023-11-19T15:53:05;7.60;98.50
76537;DHT22;65381;51.254;15.592;2023-11-19T15:55:34;7.60;98.50
76537;DHT22;65381;51.254;15.592;2023-11-19T15:58:04;7.60;98.40
76537;DHT22;65381;51.254;15.592;2023-11-19T16:00:32;7.60;98.20
76537;DHT22;65381;51.254;15.592;2023-11-19T16:03:01;7.60;98.20
76537;DHT22;65381;51.254;15.592;2023-11-19T16:05:30;7.60;98.00
76537;DHT22;65381;51.254;15.592;2023-11-19T16:08:00;7.60;97.90
76537;DHT22;65381;51.254;15.592;2023-11-19T16:10:28;7.50;98.00
76537;DHT22;65381;51.254;15.592;2023-11-19T16:12:58;7.60;98.20
76537;DHT22;65381;51.254;15.592;2023-11-19T16:15:26;7.60;98.00
76537;DHT22;65381;51.254;15.592;2023-11-19T16:17:58;7.60;98.20